createdAt,value
2023-05-14T00:00:23.309Z,20.77
2023-05-14T00:02:51.351Z,20.90
2023-05-14T00:05:19.547Z,20.98
2023-05-14T00:07:47.016Z,21.27
2023-05-14T00:10:14.511Z,20.95
2023-05-14T00:12:41.977Z,22.00
2023-05-14T00:15:10.378Z,20.60
2023-05-14T00:17:38.152Z,20.63
2023-05-14T00:20:07.295Z,20.02
2023-05-14T00:22:37.244Z,20.50
2023-05-14T00:25:06.609Z,20.98
2023-05-14T00:27:35.021Z,21.15
2023-05-14T00:30:04.797Z,20.73
2023-05-14T00:32:32.694Z,21.70
2023-05-14T00:35:02.990Z,21.23
2023-05-14T00:37:31.702Z,20.65
2023-05-14T00:40:01.867Z,20.67
2023-05-14T00:42:30.285Z,20.55
2023-05-14T00:44:57.766Z,21.38
2023-05-14T00:47:27.111Z,21.15
2023-05-14T00:49:59.527Z,21.67
2023-05-14T00:52:28.044Z,22.02
2023-05-14T00:54:57.317Z,21.05
2023-05-14T00:57:24.824Z,20.67
2023-05-14T00:59:52.874Z,21.10
2023-05-14T01:02:21.680Z,21.50
2023-05-14T01:04:49.732Z,19.50
2023-05-14T01:07:35.129Z,23.88
2023-05-14T01:10:11.492Z,23.08
2023-05-14T01:12:44.498Z,23.33
2023-05-14T01:15:19.584Z,24.50
2023-05-14T01:17:52.003Z,23.50
2023-05-14T01:20:20.988Z,25.80
2023-05-14T01:22:49.888Z,27.15
2023-05-14T01:25:18.182Z,29.60
2023-05-14T01:28:04.043Z,28.95
2023-05-14T01:30:36.601Z,30.48
2023-05-14T01:33:09.270Z,30.00
2023-05-14T01:35:37.735Z,29.52
2023-05-14T01:38:10.453Z,29.48
2023-05-14T01:40:38.420Z,31.52
2023-05-14T01:43:06.636Z,32.15
2023-05-14T01:45:36.266Z,32.20
2023-05-14T01:48:05.619Z,32.35
2023-05-14T01:50:33.362Z,31.90
2023-05-14T01:53:00.752Z,31.08
2023-05-14T01:55:30.687Z,31.05
2023-05-14T01:57:58.139Z,29.10
2023-05-14T02:00:26.969Z,34.25
2023-05-14T02:02:54.372Z,32.95
2023-05-14T02:05:23.786Z,33.50
2023-05-14T02:07:51.384Z,28.42
2023-05-14T02:10:18.833Z,27.40
2023-05-14T02:12:49.961Z,27.23
2023-05-14T02:15:24.778Z,26.58
2023-05-14T02:17:53.410Z,27.33
2023-05-14T02:20:20.959Z,26.13
2023-05-14T02:22:48.524Z,26.42
2023-05-14T02:25:16.151Z,27.17
2023-05-14T02:27:45.846Z,29.85
2023-05-14T02:30:13.549Z,28.85
2023-05-14T02:32:41.280Z,28.98
2023-05-14T02:35:09.709Z,29.40
2023-05-14T02:37:37.912Z,26.55
2023-05-14T02:40:07.387Z,27.05
2023-05-14T02:42:35.614Z,30.58
2023-05-14T02:45:02.955Z,30.08
2023-05-14T02:47:30.436Z,27.35
2023-05-14T02:49:57.914Z,27.67
2023-05-14T02:52:25.658Z,29.00
2023-05-14T02:54:53.108Z,31.63
2023-05-14T02:57:21.169Z,34.80
2023-05-14T02:59:49.341Z,34.03
2023-05-14T03:02:17.211Z,34.35
2023-05-14T03:04:45.446Z,35.53
2023-05-14T03:07:12.721Z,32.80
2023-05-14T03:09:40.061Z,35.92
2023-05-14T03:12:08.127Z,35.55
2023-05-14T03:14:35.502Z,33.00
2023-05-14T03:17:03.951Z,32.92
2023-05-14T03:19:31.886Z,33.35
2023-05-14T03:21:59.856Z,35.85
2023-05-14T03:24:28.229Z,35.47
2023-05-14T03:26:55.524Z,35.20
2023-05-14T03:29:23.200Z,34.58
2023-05-14T03:31:51.000Z,31.15
2023-05-14T03:34:18.431Z,35.92
2023-05-14T03:36:45.886Z,32.20
2023-05-14T03:39:17.954Z,31.15
2023-05-14T03:41:46.825Z,30.35
2023-05-14T03:44:14.718Z,31.48
2023-05-14T03:46:42.153Z,34.83
2023-05-14T03:49:09.978Z,35.42
2023-05-14T03:51:37.427Z,34.03
2023-05-14T03:54:07.586Z,33.00
2023-05-14T03:56:36.116Z,32.60
2023-05-14T03:59:04.005Z,33.88
2023-05-14T04:01:32.759Z,34.83
2023-05-14T04:04:00.216Z,34.72
2023-05-14T04:06:27.681Z,36.15
2023-05-14T04:08:55.586Z,37.38
2023-05-14T04:11:22.895Z,35.42
2023-05-14T04:13:50.253Z,36.55
2023-05-14T04:16:17.763Z,38.63
2023-05-14T04:18:45.298Z,36.05
2023-05-14T04:21:12.693Z,36.30
2023-05-14T04:23:40.181Z,33.38
2023-05-14T04:26:07.536Z,33.80
2023-05-14T04:28:36.255Z,35.53
2023-05-14T04:31:03.846Z,32.65
2023-05-14T04:33:32.120Z,32.47
2023-05-14T04:35:59.846Z,30.50
2023-05-14T04:38:28.202Z,30.40
2023-05-14T04:40:55.571Z,29.70
2023-05-14T04:43:22.856Z,30.50
2023-05-14T04:45:51.373Z,29.95
2023-05-14T04:48:19.011Z,29.27
2023-05-14T04:50:46.677Z,30.13
2023-05-14T04:53:14.162Z,30.70
2023-05-14T04:55:42.941Z,29.88
2023-05-14T04:58:10.541Z,30.15
2023-05-14T05:00:40.076Z,29.38
2023-05-14T05:03:08.792Z,28.70
2023-05-14T05:05:36.368Z,30.15
2023-05-14T05:08:03.945Z,29.35
2023-05-14T05:10:31.582Z,28.98
2023-05-14T05:12:59.357Z,29.92
2023-05-14T05:15:27.163Z,29.80
2023-05-14T05:17:54.807Z,28.13
2023-05-14T05:20:23.636Z,27.08
2023-05-14T05:22:51.099Z,28.08
2023-05-14T05:25:18.541Z,26.90
2023-05-14T05:27:46.878Z,27.77
2023-05-14T05:30:14.558Z,28.77
2023-05-14T05:32:43.849Z,27.73
2023-05-14T05:35:12.652Z,27.55
2023-05-14T05:37:41.468Z,29.48
2023-05-14T05:40:10.251Z,27.65
2023-05-14T05:42:37.839Z,24.85
2023-05-14T05:45:06.943Z,28.13
2023-05-14T05:47:34.894Z,31.48
2023-05-14T05:50:03.025Z,31.05
2023-05-14T05:52:30.842Z,30.23
2023-05-14T05:54:58.269Z,30.52
2023-05-14T05:57:27.355Z,29.45
2023-05-14T05:59:55.872Z,32.88
2023-05-14T06:02:23.426Z,32.60
2023-05-14T06:04:51.424Z,32.35
2023-05-14T06:07:18.783Z,29.10
2023-05-14T06:09:46.157Z,29.85
2023-05-14T06:12:15.051Z,27.38
2023-05-14T06:14:43.938Z,26.63
2023-05-14T06:17:11.938Z,28.35
2023-05-14T06:19:39.435Z,30.27
2023-05-14T06:22:07.236Z,29.08
2023-05-14T06:24:35.802Z,30.13
2023-05-14T06:27:03.579Z,28.23
2023-05-14T06:29:32.436Z,26.38
2023-05-14T06:32:04.450Z,28.77
2023-05-14T06:34:32.368Z,25.80
2023-05-14T06:37:00.533Z,25.58
2023-05-14T06:39:28.846Z,25.92
2023-05-14T06:41:56.258Z,26.17
2023-05-14T06:44:24.349Z,24.95
2023-05-14T06:46:52.131Z,25.23
2023-05-14T06:49:19.712Z,25.75
2023-05-14T06:51:47.516Z,27.55
2023-05-14T06:54:16.040Z,25.75
2023-05-14T06:56:43.893Z,26.17
2023-05-14T06:59:11.349Z,25.02
2023-05-14T07:01:39.483Z,23.98
2023-05-14T07:04:08.532Z,24.50
2023-05-14T07:06:36.102Z,26.02
2023-05-14T07:09:03.883Z,26.90
2023-05-14T07:11:31.372Z,27.05
2023-05-14T07:14:01.156Z,25.40
2023-05-14T07:16:28.711Z,24.98
2023-05-14T07:18:56.139Z,24.15
2023-05-14T07:21:23.586Z,23.13
2023-05-14T07:23:51.995Z,24.20
2023-05-14T07:26:19.368Z,24.08
2023-05-14T07:28:46.809Z,27.05
2023-05-14T07:31:15.730Z,25.35
2023-05-14T07:33:43.125Z,22.65
2023-05-14T07:36:10.610Z,26.58
2023-05-14T07:38:38.220Z,26.38
2023-05-14T07:41:05.787Z,23.35
2023-05-14T07:43:33.165Z,24.98
2023-05-14T07:46:00.957Z,26.67
2023-05-14T07:48:28.492Z,25.10
2023-05-14T07:50:56.421Z,22.80
2023-05-14T07:53:25.072Z,25.55
2023-05-14T07:55:52.881Z,23.42
2023-05-14T07:58:22.346Z,21.73
2023-05-14T08:00:49.735Z,24.83
2023-05-14T08:03:17.231Z,24.05
2023-05-14T08:05:44.982Z,23.17
2023-05-14T08:08:20.036Z,25.08
2023-05-14T08:10:47.789Z,22.52
2023-05-14T08:13:15.436Z,23.58
2023-05-14T08:15:42.778Z,23.50
2023-05-14T08:18:12.699Z,22.45
2023-05-14T08:20:40.235Z,22.83
2023-05-14T08:23:08.045Z,23.05
2023-05-14T08:25:36.300Z,25.02
2023-05-14T08:28:03.786Z,22.35
2023-05-14T08:30:31.639Z,25.13
2023-05-14T08:32:59.721Z,24.77
2023-05-14T08:35:27.238Z,24.67
2023-05-14T08:37:57.202Z,23.27
2023-05-14T08:40:26.520Z,23.67
2023-05-14T08:42:56.770Z,23.40
2023-05-14T08:45:34.623Z,23.80
2023-05-14T08:48:08.852Z,24.73
2023-05-14T08:50:37.002Z,23.35
2023-05-14T08:53:04.347Z,22.40
2023-05-14T08:55:34.049Z,23.27
2023-05-14T08:58:01.709Z,22.25
2023-05-14T09:00:29.499Z,22.98
2023-05-14T09:02:57.897Z,25.00
2023-05-14T09:05:25.548Z,24.50
2023-05-14T09:07:53.823Z,21.35
2023-05-14T09:10:22.327Z,24.08
2023-05-14T09:12:51.834Z,24.83
2023-05-14T09:15:19.906Z,21.80
2023-05-14T09:17:48.662Z,22.50
2023-05-14T09:20:16.521Z,23.85
2023-05-14T09:22:43.898Z,25.13
2023-05-14T09:25:14.776Z,24.20
2023-05-14T09:27:42.566Z,23.05
2023-05-14T09:30:12.771Z,22.65
2023-05-14T09:32:44.221Z,21.17
2023-05-14T09:35:23.245Z,23.58
2023-05-14T09:37:55.565Z,24.42
2023-05-14T09:40:25.013Z,22.77
2023-05-14T09:42:52.569Z,23.30
2023-05-14T09:45:22.583Z,22.77
2023-05-14T09:47:50.128Z,21.88
2023-05-14T09:50:18.400Z,19.85
2023-05-14T09:52:45.941Z,21.40
2023-05-14T09:55:16.279Z,21.63
2023-05-14T09:57:44.219Z,20.08
2023-05-14T10:00:13.467Z,21.10
2023-05-14T10:02:42.773Z,20.98
2023-05-14T10:05:13.081Z,19.55
2023-05-14T10:07:46.355Z,19.88
2023-05-14T10:10:19.235Z,20.23
2023-05-14T10:12:56.787Z,20.33
2023-05-14T10:15:30.032Z,19.23
2023-05-14T10:18:03.478Z,19.38
2023-05-14T10:20:32.602Z,17.92
2023-05-14T10:23:00.623Z,18.70
2023-05-14T10:25:30.034Z,20.65
2023-05-14T10:27:58.037Z,20.02
2023-05-14T10:30:25.930Z,18.58
2023-05-14T10:33:12.454Z,18.90
2023-05-14T10:36:00.993Z,20.45
2023-05-14T10:38:33.640Z,18.90
2023-05-14T10:41:07.089Z,18.80
2023-05-14T10:43:38.843Z,18.17
2023-05-14T10:46:07.542Z,17.95
2023-05-14T10:48:36.633Z,19.85
2023-05-14T10:51:04.069Z,18.35
2023-05-14T10:53:42.767Z,18.90
2023-05-14T10:56:12.299Z,18.48
2023-05-14T10:58:45.314Z,17.90
2023-05-14T11:01:14.121Z,19.05
2023-05-14T11:03:42.742Z,16.55
2023-05-14T11:06:13.042Z,19.75
2023-05-14T11:08:43.871Z,16.58
2023-05-14T11:11:15.510Z,19.45
2023-05-14T11:13:43.679Z,17.13
2023-05-14T11:16:22.657Z,17.73
2023-05-14T11:19:04.619Z,19.15
2023-05-14T11:21:34.703Z,18.42
2023-05-14T11:24:05.356Z,17.63
2023-05-14T11:26:33.052Z,18.58
2023-05-14T11:29:01.065Z,17.20
2023-05-14T11:31:28.598Z,16.73
2023-05-14T11:33:56.223Z,16.33
2023-05-14T11:36:23.600Z,17.73
2023-05-14T11:38:52.343Z,16.90
2023-05-14T11:41:21.628Z,16.48
2023-05-14T11:43:49.286Z,16.88
2023-05-14T11:46:18.671Z,19.33
2023-05-14T11:48:47.546Z,17.75
2023-05-14T11:51:15.093Z,17.60
2023-05-14T11:53:42.362Z,15.85
2023-05-14T11:56:10.056Z,15.73
2023-05-14T11:58:37.742Z,17.17
2023-05-14T12:01:05.632Z,18.13
2023-05-14T12:03:33.233Z,16.67
2023-05-14T12:06:03.444Z,15.82
2023-05-14T12:08:31.598Z,15.65
2023-05-14T12:11:00.595Z,16.52
2023-05-14T12:13:31.488Z,17.42
2023-05-14T12:16:02.161Z,16.73
2023-05-14T12:18:31.459Z,14.48
2023-05-14T12:21:07.906Z,16.67
2023-05-14T12:23:35.551Z,14.80
2023-05-14T12:26:08.531Z,17.15
2023-05-14T12:28:39.992Z,15.52
2023-05-14T12:31:07.326Z,15.60
2023-05-14T12:33:34.725Z,14.63
2023-05-14T12:38:34.587Z,14.15
2023-05-14T12:41:02.096Z,13.30
2023-05-14T12:43:31.682Z,12.90
2023-05-14T12:45:59.001Z,12.32
2023-05-14T12:48:26.589Z,12.27
2023-05-14T12:50:53.939Z,13.10
2023-05-14T12:53:21.201Z,13.55
2023-05-14T12:55:49.658Z,11.73
2023-05-14T12:58:17.190Z,10.38
2023-05-14T13:00:44.520Z,12.50
2023-05-14T13:03:11.919Z,11.50
2023-05-14T13:05:39.383Z,11.05
2023-05-14T13:08:06.721Z,11.93
2023-05-14T13:10:34.023Z,10.38
2023-05-14T13:13:02.499Z,11.38
2023-05-14T13:15:31.569Z,13.00
2023-05-14T13:17:59.114Z,12.43
2023-05-14T13:20:30.991Z,11.40
2023-05-14T13:22:59.690Z,11.57
2023-05-14T13:25:27.685Z,10.82
2023-05-14T13:27:56.098Z,8.93
2023-05-14T13:30:23.554Z,10.93
2023-05-14T13:32:51.093Z,10.80
2023-05-14T13:35:18.472Z,10.30
2023-05-14T13:37:47.219Z,10.73
2023-05-14T13:40:16.692Z,9.98
2023-05-14T13:42:44.019Z,11.57
2023-05-14T13:45:13.061Z,11.00
2023-05-14T13:47:41.468Z,11.18
2023-05-14T13:50:09.393Z,11.85
2023-05-14T13:52:37.798Z,10.45
2023-05-14T13:55:05.600Z,10.38
2023-05-14T13:57:32.906Z,10.10
2023-05-14T14:00:00.265Z,9.35
2023-05-14T14:02:27.668Z,8.70
2023-05-14T14:04:54.941Z,9.70
2023-05-14T14:07:22.628Z,7.95
2023-05-14T14:09:49.897Z,7.35
2023-05-14T14:12:17.476Z,7.65
2023-05-14T14:14:44.798Z,9.02
2023-05-14T14:17:12.115Z,5.80
2023-05-14T14:19:39.418Z,6.82
2023-05-14T14:22:07.002Z,5.82
2023-05-14T14:24:34.532Z,6.47
2023-05-14T14:27:02.573Z,9.05
2023-05-14T14:29:31.131Z,8.40
2023-05-14T14:31:59.144Z,8.48
2023-05-14T14:34:26.625Z,7.70
2023-05-14T14:36:53.922Z,7.68
2023-05-14T14:39:21.552Z,7.78
2023-05-14T14:41:48.960Z,6.15
2023-05-14T14:44:16.288Z,8.32
2023-05-14T14:46:43.594Z,7.68
2023-05-14T14:49:11.139Z,8.10
2023-05-14T14:51:38.447Z,7.05
2023-05-14T14:54:05.900Z,9.85
2023-05-14T14:56:33.857Z,10.27
2023-05-14T14:59:03.792Z,9.75
2023-05-14T15:01:32.910Z,9.52
2023-05-14T15:04:00.404Z,9.38
2023-05-14T15:06:27.913Z,8.68
2023-05-14T15:08:55.216Z,12.65
2023-05-14T15:11:23.397Z,14.40
2023-05-14T15:13:50.927Z,8.68
2023-05-14T15:16:18.277Z,9.18
2023-05-14T15:18:45.808Z,9.40
2023-05-14T15:21:13.216Z,10.23
2023-05-14T15:23:40.724Z,10.70
2023-05-14T15:26:08.111Z,8.82
2023-05-14T15:28:35.601Z,9.90
2023-05-14T15:31:03.572Z,8.73
2023-05-14T15:33:30.928Z,9.13
2023-05-14T15:35:58.483Z,9.00
2023-05-14T15:38:25.996Z,7.40
2023-05-14T15:40:54.641Z,9.55
2023-05-14T15:43:24.571Z,8.77
2023-05-14T15:45:51.897Z,8.88
2023-05-14T15:48:19.199Z,9.15
2023-05-14T15:50:49.659Z,8.20
2023-05-14T15:53:17.871Z,8.50
2023-05-14T15:55:45.324Z,8.90
2023-05-14T15:58:12.871Z,8.63
2023-05-14T16:00:40.297Z,9.00
2023-05-14T16:03:07.729Z,8.32
2023-05-14T16:05:35.301Z,9.23
2023-05-14T16:08:02.742Z,8.95
2023-05-14T16:10:32.782Z,10.35
2023-05-14T16:13:00.289Z,9.95
2023-05-14T16:15:29.216Z,10.23
2023-05-14T16:17:57.429Z,13.02
2023-05-14T16:20:25.016Z,11.57
2023-05-14T16:22:52.545Z,10.35
2023-05-14T16:25:19.855Z,10.90
2023-05-14T16:27:47.209Z,10.32
2023-05-14T16:30:14.587Z,10.85
2023-05-14T16:32:42.271Z,9.63
2023-05-14T16:35:09.929Z,11.10
2023-05-14T16:37:37.291Z,10.60
2023-05-14T16:40:07.447Z,8.52
2023-05-14T16:42:34.872Z,8.90
2023-05-14T16:45:02.196Z,9.45
2023-05-14T16:47:29.568Z,9.43
2023-05-14T16:50:00.059Z,8.60
2023-05-14T16:52:27.936Z,8.15
2023-05-14T16:54:56.692Z,7.85
2023-05-14T16:57:25.490Z,9.35
2023-05-14T16:59:53.542Z,8.95
2023-05-14T17:02:20.974Z,8.43
2023-05-14T17:04:51.502Z,8.73
2023-05-14T17:07:18.877Z,9.23
2023-05-14T17:09:46.251Z,9.45
2023-05-14T17:12:13.970Z,7.80
2023-05-14T17:14:41.279Z,8.80
2023-05-14T17:17:10.819Z,8.05
2023-05-14T17:19:39.610Z,8.35
2023-05-14T17:22:07.503Z,8.45
2023-05-14T17:24:36.379Z,7.65
2023-05-14T17:27:05.072Z,8.27
2023-05-14T17:29:32.764Z,7.65
2023-05-14T17:32:00.558Z,6.78
2023-05-14T17:34:28.240Z,7.10
2023-05-14T17:36:56.257Z,6.88
2023-05-14T17:39:24.852Z,7.78
2023-05-14T17:41:52.758Z,11.45
2023-05-14T17:44:21.407Z,9.15
2023-05-14T17:46:49.728Z,6.88
2023-05-14T17:49:17.043Z,6.47
2023-05-14T17:51:44.490Z,6.85
2023-05-14T17:54:11.784Z,8.65
2023-05-14T17:56:39.584Z,7.95
2023-05-14T17:59:07.157Z,7.45
2023-05-14T18:01:34.487Z,7.55
2023-05-14T18:04:02.338Z,8.90
2023-05-14T18:06:29.754Z,7.85
2023-05-14T18:08:57.272Z,6.63
2023-05-14T18:11:24.754Z,6.30
2023-05-14T18:13:52.041Z,6.28
2023-05-14T18:16:19.590Z,18.33
2023-05-14T18:18:47.316Z,21.92
2023-05-14T18:21:16.034Z,15.30
2023-05-14T18:23:43.554Z,6.80
2023-05-14T18:26:10.970Z,7.63
2023-05-14T18:28:38.583Z,7.25
2023-05-14T18:31:06.039Z,6.40
2023-05-14T18:33:33.898Z,7.47
2023-05-14T18:36:01.695Z,9.35
2023-05-14T18:38:29.044Z,19.75
2023-05-14T18:40:56.399Z,16.77
2023-05-14T18:43:23.872Z,10.35
2023-05-14T18:45:51.412Z,7.43
2023-05-14T18:48:18.818Z,12.57
2023-05-14T18:50:46.127Z,13.68
2023-05-14T18:53:15.009Z,7.63
2023-05-14T18:55:43.206Z,11.30
2023-05-14T18:58:10.688Z,9.63
2023-05-14T19:00:37.985Z,9.88
2023-05-14T19:03:05.501Z,7.45
2023-05-14T19:05:33.106Z,8.57
2023-05-14T19:08:01.029Z,7.90
2023-05-14T19:10:28.417Z,7.78
2023-05-14T19:12:55.969Z,10.60
2023-05-14T19:15:23.513Z,15.95
2023-05-14T19:17:52.079Z,18.15
2023-05-14T19:20:19.522Z,23.00
2023-05-14T19:22:46.949Z,22.10
2023-05-14T19:25:15.416Z,25.42
2023-05-14T19:27:43.110Z,24.33
2023-05-14T19:30:11.144Z,23.88
2023-05-14T19:32:38.532Z,23.77
2023-05-14T19:35:08.041Z,25.08
2023-05-14T19:37:35.538Z,35.58
2023-05-14T19:40:03.662Z,37.15
2023-05-14T19:42:31.834Z,35.75
2023-05-14T19:44:59.104Z,42.67
2023-05-14T19:47:28.463Z,44.05
2023-05-14T19:49:55.882Z,56.00
2023-05-14T19:52:23.378Z,30.58
2023-05-14T19:54:50.780Z,35.53
2023-05-14T19:57:18.141Z,42.25
2023-05-14T19:59:45.655Z,32.17
2023-05-14T20:02:18.660Z,36.78
2023-05-14T20:04:47.386Z,27.42
2023-05-14T20:07:15.809Z,29.08
2023-05-14T20:09:43.300Z,28.17
2023-05-14T20:12:13.247Z,9.75
2023-05-14T20:14:41.492Z,12.20
2023-05-14T20:17:09.164Z,11.40
2023-05-14T20:19:36.622Z,11.07
2023-05-14T20:22:05.600Z,11.35
2023-05-14T20:24:32.961Z,4.90
2023-05-14T20:27:00.929Z,3.40
2023-05-14T20:29:29.729Z,2.70
2023-05-14T20:31:57.300Z,3.25
2023-05-14T20:34:25.153Z,2.60
2023-05-14T20:36:53.429Z,2.20
2023-05-14T20:39:22.535Z,2.30
2023-05-14T20:41:50.106Z,2.35
2023-05-14T20:44:18.432Z,2.28
2023-05-14T20:46:48.471Z,3.08
2023-05-14T20:49:16.106Z,4.10
2023-05-14T20:51:43.459Z,5.65
2023-05-14T20:54:11.252Z,2.35
2023-05-14T20:56:38.821Z,4.78
2023-05-14T20:59:08.760Z,4.55
2023-05-14T21:01:36.534Z,2.90
2023-05-14T21:04:05.363Z,3.15
2023-05-14T21:06:32.736Z,3.03
2023-05-14T21:09:00.048Z,2.83
2023-05-14T21:11:27.329Z,3.58
2023-05-14T21:13:54.962Z,3.97
2023-05-14T21:16:22.489Z,3.95
2023-05-14T21:18:49.940Z,4.47
2023-05-14T21:21:17.316Z,4.15
2023-05-14T21:23:44.744Z,4.72
2023-05-14T21:26:12.106Z,4.15
2023-05-14T21:28:39.465Z,2.97
2023-05-14T21:31:06.957Z,2.72
2023-05-14T21:33:36.160Z,3.15
2023-05-14T21:36:03.895Z,3.30
2023-05-14T21:38:32.880Z,3.03
2023-05-14T21:41:01.665Z,3.53
2023-05-14T21:43:29.017Z,3.63
2023-05-14T21:45:56.410Z,3.10
2023-05-14T21:48:24.690Z,3.33
2023-05-14T21:50:52.154Z,2.22
2023-05-14T21:53:19.552Z,2.28
2023-05-14T21:55:46.941Z,3.20
2023-05-14T21:58:14.454Z,2.15
2023-05-14T22:00:41.750Z,3.10
2023-05-14T22:03:09.333Z,2.10
2023-05-14T22:05:36.943Z,2.65
2023-05-14T22:08:04.404Z,2.75
2023-05-14T22:10:33.045Z,1.95
2023-05-14T22:13:01.752Z,2.40
2023-05-14T22:15:30.604Z,3.08
2023-05-14T22:17:58.458Z,4.43
2023-05-14T22:20:25.980Z,3.60
2023-05-14T22:22:53.409Z,4.47
2023-05-14T22:25:21.895Z,4.60
2023-05-14T22:27:49.268Z,4.10
2023-05-14T22:30:16.600Z,2.63
2023-05-14T22:32:44.409Z,4.43
2023-05-14T22:35:11.699Z,3.97
2023-05-14T22:37:42.128Z,8.20
2023-05-14T22:40:10.054Z,6.35
2023-05-14T22:42:38.673Z,5.28
2023-05-14T22:45:06.821Z,6.25
2023-05-14T22:47:34.236Z,4.88
2023-05-14T22:50:01.547Z,2.63
2023-05-14T22:52:29.024Z,7.35
2023-05-14T22:54:56.401Z,4.65
2023-05-14T22:57:23.985Z,3.13
2023-05-14T22:59:51.478Z,5.13
2023-05-14T23:02:19.641Z,7.25
2023-05-14T23:04:47.120Z,2.33
2023-05-14T23:07:15.297Z,3.53
2023-05-14T23:09:42.549Z,5.75
2023-05-14T23:12:10.090Z,4.57
2023-05-14T23:14:38.495Z,4.93
2023-05-14T23:17:05.882Z,5.70
2023-05-14T23:19:34.672Z,3.50
2023-05-14T23:22:03.749Z,3.58
2023-05-14T23:24:31.081Z,2.80
2023-05-14T23:26:58.466Z,3.92
2023-05-14T23:29:27.314Z,2.50
2023-05-14T23:31:54.643Z,2.78
2023-05-14T23:34:23.373Z,4.82
2023-05-14T23:36:51.460Z,5.43
2023-05-14T23:39:19.065Z,5.80
2023-05-14T23:41:46.464Z,2.80
2023-05-14T23:44:14.175Z,3.97
2023-05-14T23:46:42.970Z,2.03
2023-05-14T23:49:10.399Z,2.08
2023-05-14T23:51:38.180Z,2.28
2023-05-14T23:54:06.000Z,1.88
2023-05-14T23:56:33.699Z,2.38
2023-05-14T23:59:01.639Z,2.13
